createdAt,value
2017-09-13T00:00:49.094Z,0
2017-09-13T00:01:48.754Z,0
2017-09-13T00:02:48.751Z,0
2017-09-13T00:03:49.375Z,0
2017-09-13T00:04:49.364Z,0
2017-09-13T00:05:49.033Z,0
2017-09-13T00:06:49.010Z,0
2017-09-13T00:07:48.669Z,0
2017-09-13T00:08:48.978Z,0
2017-09-13T00:09:49.290Z,0
2017-09-13T00:10:49.276Z,0
2017-09-13T00:11:48.618Z,0
2017-09-13T00:12:48.602Z,0
2017-09-13T00:13:48.914Z,0
2017-09-13T00:14:48.246Z,0
2017-09-13T00:15:48.560Z,0
2017-09-13T00:16:49.192Z,0
2017-09-13T00:17:48.850Z,0
2017-09-13T00:18:48.836Z,0
2017-09-13T00:19:48.824Z,0
2017-09-13T00:20:48.810Z,0
2017-09-13T00:21:48.470Z,0
2017-09-13T00:22:48.494Z,0
2017-09-13T00:23:48.766Z,0
2017-09-13T00:24:48.434Z,0
2017-09-13T00:25:48.737Z,0
2017-09-13T00:26:48.717Z,0
2017-09-13T00:27:48.388Z,0
2017-09-13T00:28:49.048Z,0
2017-09-13T00:29:48.995Z,0
2017-09-13T00:30:48.663Z,0
2017-09-13T00:31:48.332Z,0
2017-09-13T00:32:48.314Z,0
2017-09-13T00:33:48.300Z,0
2017-09-13T00:34:48.609Z,0
2017-09-13T00:35:48.921Z,0
2017-09-13T00:36:48.585Z,0
2017-09-13T00:37:48.563Z,0
2017-09-13T00:38:48.571Z,0
2017-09-13T00:39:48.216Z,0
2017-09-13T00:40:48.525Z,0
2017-09-13T00:41:48.193Z,0
2017-09-13T00:42:48.538Z,0
2017-09-13T00:43:48.493Z,0
2017-09-13T00:44:48.482Z,0
2017-09-13T00:45:48.804Z,0
2017-09-13T00:46:48.114Z,0
2017-09-13T00:47:48.437Z,0
2017-09-13T00:48:48.421Z,0
2017-09-13T00:49:48.396Z,0
2017-09-13T00:50:48.395Z,0
2017-09-13T00:51:48.357Z,0
2017-09-13T00:52:48.362Z,0
2017-09-13T00:53:48.335Z,0
2017-09-13T00:54:48.317Z,0
2017-09-13T00:55:48.312Z,0
2017-09-13T00:56:47.965Z,0
2017-09-13T00:57:47.958Z,0
2017-09-13T00:58:48.265Z,0
2017-09-13T00:59:47.923Z,0
2017-09-13T01:00:48.242Z,0
2017-09-13T01:01:48.227Z,0
2017-09-13T01:02:48.208Z,0
2017-09-13T01:03:48.193Z,0
2017-09-13T01:04:47.854Z,0
2017-09-13T01:05:47.840Z,0
2017-09-13T01:06:47.832Z,0
2017-09-13T01:07:48.136Z,0
2017-09-13T01:08:47.798Z,0
2017-09-13T01:09:48.107Z,0
2017-09-13T01:10:48.098Z,0
2017-09-13T01:11:47.753Z,0
2017-09-13T01:12:47.741Z,0
2017-09-13T01:13:48.066Z,0
2017-09-13T01:14:48.358Z,0
2017-09-13T01:15:47.696Z,0
2017-09-13T01:16:47.693Z,0
2017-09-13T01:17:47.667Z,0
2017-09-13T01:18:47.338Z,0
2017-09-13T01:19:47.648Z,0
2017-09-13T01:20:47.314Z,0
2017-09-13T01:21:47.937Z,0
2017-09-13T01:22:47.607Z,0
2017-09-13T01:23:47.910Z,0
2017-09-13T01:24:47.579Z,0
2017-09-13T01:25:47.886Z,0
2017-09-13T01:26:47.864Z,0
2017-09-13T01:27:47.855Z,0
2017-09-13T01:28:47.843Z,0
2017-09-13T01:29:47.559Z,0
2017-09-13T01:30:47.817Z,0
2017-09-13T01:31:47.802Z,0
2017-09-13T01:32:47.458Z,0
2017-09-13T01:33:47.449Z,0
2017-09-13T01:34:47.759Z,0
2017-09-13T01:35:48.060Z,0
2017-09-13T01:36:47.724Z,0
2017-09-13T01:37:48.029Z,0
2017-09-13T01:38:48.106Z,0
2017-09-13T01:39:48.006Z,0
2017-09-13T01:40:47.670Z,0
2017-09-13T01:41:47.662Z,0
2017-09-13T01:42:47.325Z,0
2017-09-13T01:43:46.991Z,0
2017-09-13T01:44:46.980Z,0
2017-09-13T01:45:47.924Z,0
2017-09-13T01:46:47.593Z,0
2017-09-13T01:47:47.582Z,0
2017-09-13T01:48:47.567Z,0
2017-09-13T01:49:47.235Z,0
2017-09-13T01:50:47.538Z,0
2017-09-13T01:51:47.840Z,0
2017-09-13T01:52:47.183Z,0
2017-09-13T01:53:47.492Z,0
2017-09-13T01:54:47.802Z,0
2017-09-13T01:55:47.469Z,0
2017-09-13T01:56:47.460Z,0
2017-09-13T01:57:47.112Z,0
2017-09-13T01:58:47.093Z,0
2017-09-13T01:59:47.412Z,0
2017-09-13T02:00:47.070Z,0
2017-09-13T02:01:47.063Z,0
2017-09-13T02:02:47.368Z,0
2017-09-13T02:03:47.727Z,0
2017-09-13T02:04:46.694Z,0
2017-09-13T02:05:47.648Z,0
2017-09-13T02:06:47.309Z,0
2017-09-13T02:07:47.295Z,0
2017-09-13T02:08:47.285Z,0
2017-09-13T02:09:47.267Z,0
2017-09-13T02:10:46.929Z,0
2017-09-13T02:11:47.235Z,0
2017-09-13T02:12:47.221Z,0
2017-09-13T02:13:47.211Z,0
2017-09-13T02:14:47.197Z,0
2017-09-13T02:15:47.214Z,0
2017-09-13T02:16:47.182Z,0
2017-09-13T02:17:47.151Z,0
2017-09-13T02:18:46.817Z,0
2017-09-13T02:19:46.801Z,0
2017-09-13T02:20:47.109Z,0
2017-09-13T02:21:47.116Z,0
2017-09-13T02:22:47.424Z,0
2017-09-13T02:23:47.077Z,0
2017-09-13T02:24:47.053Z,0
2017-09-13T02:25:47.361Z,0
2017-09-13T02:26:47.025Z,0
2017-09-13T02:27:47.008Z,0
2017-09-13T02:28:46.991Z,0
2017-09-13T02:29:46.996Z,0
2017-09-13T02:30:46.967Z,0
2017-09-13T02:31:46.630Z,0
2017-09-13T02:32:46.611Z,0
2017-09-13T02:33:46.923Z,0
2017-09-13T02:34:46.584Z,0
2017-09-13T02:35:47.213Z,0
2017-09-13T02:36:46.874Z,0
2017-09-13T02:37:46.858Z,0
2017-09-13T02:38:46.200Z,0
2017-09-13T02:39:46.859Z,0
2017-09-13T02:40:46.818Z,0
2017-09-13T02:41:46.481Z,0
2017-09-13T02:42:46.486Z,0
2017-09-13T02:43:46.453Z,0
2017-09-13T02:44:46.117Z,0
2017-09-13T02:45:46.738Z,0
2017-09-13T02:46:46.733Z,0
2017-09-13T02:47:46.743Z,0
2017-09-13T02:48:46.713Z,0
2017-09-13T02:49:46.685Z,0
2017-09-13T02:50:46.672Z,0
2017-09-13T02:51:46.334Z,0
2017-09-13T02:52:46.655Z,0
2017-09-13T02:53:46.949Z,0
2017-09-13T02:54:46.308Z,0
2017-09-13T02:55:46.280Z,0
2017-09-13T02:56:46.588Z,0
2017-09-13T02:57:46.904Z,0
2017-09-13T02:58:46.552Z,0
2017-09-13T02:59:46.539Z,0
2017-09-13T03:00:46.194Z,0
2017-09-13T03:01:46.499Z,0
2017-09-13T03:02:46.485Z,0
2017-09-13T03:03:46.791Z,0
2017-09-13T03:04:46.793Z,0
2017-09-13T03:05:46.756Z,0
2017-09-13T03:06:45.781Z,0
2017-09-13T03:07:46.411Z,0
2017-09-13T03:08:46.397Z,0
2017-09-13T03:09:46.385Z,0
2017-09-13T03:10:46.363Z,0
2017-09-13T03:11:46.671Z,0
2017-09-13T03:12:46.015Z,0
2017-09-13T03:13:46.010Z,0
2017-09-13T03:14:46.309Z,0
2017-09-13T03:15:45.978Z,0
2017-09-13T03:16:46.276Z,0
2017-09-13T03:17:46.266Z,0
2017-09-13T03:18:46.243Z,0
2017-09-13T03:19:45.594Z,0
2017-09-13T03:20:46.205Z,0
2017-09-13T03:21:46.192Z,0
2017-09-13T03:22:46.186Z,0
2017-09-13T03:23:46.162Z,0
2017-09-13T03:24:45.510Z,0
2017-09-13T03:25:45.811Z,0
2017-09-13T03:26:46.125Z,0
2017-09-13T03:27:45.787Z,0
2017-09-13T03:28:45.792Z,0
2017-09-13T03:29:46.085Z,0
2017-09-13T03:30:46.389Z,0
2017-09-13T03:31:45.791Z,0
2017-09-13T03:32:45.710Z,0
2017-09-13T03:33:46.021Z,0
2017-09-13T03:34:45.675Z,0
2017-09-13T03:35:45.985Z,0
2017-09-13T03:36:46.295Z,0
2017-09-13T03:37:45.948Z,0
2017-09-13T03:38:45.968Z,0
2017-09-13T03:39:45.805Z,0
2017-09-13T03:40:45.595Z,0
2017-09-13T03:41:45.564Z,0
2017-09-13T03:42:46.198Z,0
2017-09-13T03:43:46.181Z,0
2017-09-13T03:44:45.851Z,0
2017-09-13T03:45:45.829Z,0
2017-09-13T03:46:45.490Z,0
2017-09-13T03:47:45.151Z,0
2017-09-13T03:48:45.783Z,0
2017-09-13T03:49:45.123Z,0
2017-09-13T03:50:46.075Z,0
2017-09-13T03:51:46.080Z,0
2017-09-13T03:52:45.412Z,0
2017-09-13T03:53:45.065Z,0
2017-09-13T03:54:45.370Z,0
2017-09-13T03:55:45.681Z,0
2017-09-13T03:56:45.671Z,0
2017-09-13T03:57:45.642Z,0
2017-09-13T03:58:45.633Z,0
2017-09-13T03:59:45.621Z,0
2017-09-13T04:00:45.914Z,0
2017-09-13T04:01:45.572Z,0
2017-09-13T04:02:45.562Z,0
2017-09-13T04:03:45.551Z,0
2017-09-13T04:04:45.211Z,0
2017-09-13T04:05:45.523Z,0
2017-09-13T04:06:45.824Z,0
2017-09-13T04:07:45.172Z,0
2017-09-13T04:08:45.149Z,0
2017-09-13T04:09:45.134Z,0
2017-09-13T04:10:45.117Z,0
2017-09-13T04:11:45.423Z,0
2017-09-13T04:12:45.088Z,0
2017-09-13T04:13:45.395Z,0
2017-09-13T04:14:45.695Z,0
2017-09-13T04:15:45.045Z,0
2017-09-13T04:16:45.025Z,0
2017-09-13T04:17:44.687Z,0
2017-09-13T04:18:44.994Z,0
2017-09-13T04:19:45.305Z,0
2017-09-13T04:20:44.645Z,0
2017-09-13T04:21:45.270Z,0
2017-09-13T04:22:44.931Z,0
2017-09-13T04:23:45.243Z,0
2017-09-13T04:24:45.245Z,0
2017-09-13T04:25:45.200Z,0
2017-09-13T04:26:45.192Z,0
2017-09-13T04:27:45.495Z,0
2017-09-13T04:28:44.852Z,0
2017-09-13T04:29:45.142Z,0
2017-09-13T04:30:45.127Z,0
2017-09-13T04:31:45.112Z,0
2017-09-13T04:32:44.774Z,0
2017-09-13T04:33:45.085Z,0
2017-09-13T04:34:44.741Z,0
2017-09-13T04:35:45.054Z,0
2017-09-13T04:36:45.030Z,0
2017-09-13T04:37:44.700Z,0
2017-09-13T04:38:44.680Z,0
2017-09-13T04:39:44.989Z,0
2017-09-13T04:40:44.975Z,0
2017-09-13T04:41:45.281Z,4
2017-09-13T04:42:44.638Z,4
2017-09-13T04:43:45.249Z,0
2017-09-13T04:44:44.907Z,4
2017-09-13T04:45:44.912Z,4
2017-09-13T04:46:44.878Z,4
2017-09-13T04:47:44.544Z,8
2017-09-13T04:48:45.171Z,8
2017-09-13T04:49:44.831Z,8
2017-09-13T04:50:45.141Z,12
2017-09-13T04:51:44.159Z,12
2017-09-13T04:52:44.784Z,12
2017-09-13T04:53:44.858Z,16
2017-09-13T04:54:44.437Z,16
2017-09-13T04:55:44.438Z,16
2017-09-13T04:56:44.406Z,20
2017-09-13T04:57:44.072Z,20
2017-09-13T04:58:44.697Z,16
2017-09-13T04:59:44.674Z,24
2017-09-13T05:00:44.668Z,24
2017-09-13T05:01:44.324Z,32
2017-09-13T05:02:44.307Z,32
2017-09-13T05:03:44.607Z,32
2017-09-13T05:04:43.956Z,32
2017-09-13T05:05:44.899Z,40
2017-09-13T05:06:44.566Z,28
2017-09-13T05:07:44.228Z,44
2017-09-13T05:08:44.534Z,44
2017-09-13T05:09:44.844Z,52
2017-09-13T05:10:44.190Z,52
2017-09-13T05:11:44.486Z,56
2017-09-13T05:12:44.150Z,68
2017-09-13T05:13:44.134Z,76
2017-09-13T05:14:44.436Z,76
2017-09-13T05:15:43.779Z,92
2017-09-13T05:16:44.404Z,76
2017-09-13T05:17:44.073Z,68
2017-09-13T05:18:44.373Z,84
2017-09-13T05:19:44.036Z,112
2017-09-13T05:20:44.027Z,96
2017-09-13T05:21:44.015Z,92
2017-09-13T05:22:43.993Z,120
2017-09-13T05:23:43.982Z,200
2017-09-13T05:24:44.286Z,208
2017-09-13T05:25:43.949Z,188
2017-09-13T05:26:44.257Z,140
2017-09-13T05:27:43.914Z,136
2017-09-13T05:28:44.222Z,180
2017-09-13T05:29:43.886Z,248
2017-09-13T05:30:43.870Z,352
2017-09-13T05:31:43.851Z,304
2017-09-13T05:32:43.851Z,320
2017-09-13T05:33:43.848Z,352
2017-09-13T05:34:44.133Z,360
2017-09-13T05:35:43.786Z,352
2017-09-13T05:36:43.802Z,344
2017-09-13T05:37:43.759Z,256
2017-09-13T05:38:43.424Z,256
2017-09-13T05:39:43.931Z,268
2017-09-13T05:40:43.393Z,232
2017-09-13T05:41:44.016Z,256
2017-09-13T05:42:44.007Z,252
2017-09-13T05:43:44.037Z,368
2017-09-13T05:44:43.349Z,468
2017-09-13T05:45:43.653Z,656
2017-09-13T05:46:44.278Z,652
2017-09-13T05:47:43.622Z,464
2017-09-13T05:48:43.595Z,388
2017-09-13T05:49:43.573Z,372
2017-09-13T05:50:44.209Z,336
2017-09-13T05:51:43.899Z,364
2017-09-13T05:52:44.181Z,320
2017-09-13T05:53:43.845Z,308
2017-09-13T05:54:43.824Z,400
2017-09-13T05:55:43.173Z,628
2017-09-13T05:56:43.151Z,628
2017-09-13T05:57:43.774Z,760
2017-09-13T05:58:43.435Z,772
2017-09-13T05:59:43.745Z,584
2017-09-13T06:00:43.410Z,504
2017-09-13T06:01:43.070Z,624
2017-09-13T06:02:43.376Z,680
2017-09-13T06:03:43.700Z,948
2017-09-13T06:04:43.668Z,1000
2017-09-13T06:05:43.980Z,820
2017-09-13T06:06:43.961Z,648
2017-09-13T06:07:43.627Z,328
2017-09-13T06:08:43.614Z,240
2017-09-13T06:09:43.270Z,204
2017-09-13T06:10:43.255Z,292
2017-09-13T06:11:43.237Z,284
2017-09-13T06:12:43.559Z,392
2017-09-13T06:13:43.533Z,680
2017-09-13T06:14:43.196Z,1168
2017-09-13T06:15:43.498Z,1376
2017-09-13T06:16:43.159Z,1076
2017-09-13T06:17:42.822Z,1572
2017-09-13T06:18:43.130Z,732
2017-09-13T06:19:43.439Z,416
2017-09-13T06:20:43.737Z,264
2017-09-13T06:21:43.732Z,352
2017-09-13T06:22:42.757Z,512
2017-09-13T06:23:43.114Z,468
2017-09-13T06:24:43.369Z,496
2017-09-13T06:25:43.676Z,580
2017-09-13T06:26:43.008Z,688
2017-09-13T06:27:43.015Z,988
2017-09-13T06:28:43.501Z,808
2017-09-13T06:29:43.285Z,732
2017-09-13T06:30:42.950Z,1024
2017-09-13T06:31:42.929Z,1780
2017-09-13T06:32:42.608Z,1832
2017-09-13T06:33:43.224Z,2864
2017-09-13T06:34:43.205Z,2884
2017-09-13T06:35:43.213Z,2188
2017-09-13T06:36:43.523Z,2036
2017-09-13T06:37:43.161Z,1772
2017-09-13T06:38:42.824Z,1168
2017-09-13T06:39:43.455Z,1088
2017-09-13T06:40:43.448Z,1372
2017-09-13T06:41:43.115Z,1704
2017-09-13T06:42:42.764Z,1944
2017-09-13T06:43:42.435Z,2376
2017-09-13T06:44:43.378Z,2544
2017-09-13T06:45:43.047Z,2348
2017-09-13T06:46:42.709Z,2060
2017-09-13T06:47:43.014Z,2480
2017-09-13T06:48:42.997Z,1644
2017-09-13T06:49:42.980Z,1328
2017-09-13T06:50:42.648Z,1720
2017-09-13T06:51:43.316Z,1196
2017-09-13T06:52:42.937Z,1828
2017-09-13T06:53:42.290Z,3464
2017-09-13T06:54:42.905Z,2852
2017-09-13T06:55:42.898Z,2764
2017-09-13T06:56:42.560Z,3320
2017-09-13T06:57:42.871Z,2992
2017-09-13T06:58:42.854Z,2672
2017-09-13T06:59:42.846Z,2472
2017-09-13T07:00:42.824Z,3784
2017-09-13T07:01:42.810Z,3776
2017-09-13T07:02:42.798Z,2732
2017-09-13T07:03:42.464Z,3308
2017-09-13T07:04:42.764Z,3172
2017-09-13T07:05:42.749Z,3988
2017-09-13T07:06:42.740Z,3100
2017-09-13T07:07:42.399Z,3384
2017-09-13T07:08:42.387Z,2524
2017-09-13T07:09:43.012Z,2648
2017-09-13T07:10:42.684Z,2776
2017-09-13T07:11:42.353Z,3120
2017-09-13T07:12:42.336Z,2704
2017-09-13T07:13:42.314Z,2752
2017-09-13T07:14:42.624Z,2792
2017-09-13T07:15:42.611Z,2772
2017-09-13T07:16:42.921Z,2976
2017-09-13T07:17:42.270Z,3400
2017-09-13T07:18:42.574Z,2824
2017-09-13T07:19:42.260Z,2772
2017-09-13T07:20:42.548Z,3064
2017-09-13T07:21:42.206Z,2928
2017-09-13T07:22:42.198Z,3248
2017-09-13T07:23:42.519Z,2888
2017-09-13T07:24:42.488Z,3076
2017-09-13T07:25:42.158Z,3472
2017-09-13T07:26:42.140Z,4112
2017-09-13T07:27:42.770Z,5492
2017-09-13T07:28:42.438Z,6408
2017-09-13T07:29:42.220Z,6184
2017-09-13T07:30:42.104Z,6472
2017-09-13T07:31:42.703Z,6252
2017-09-13T07:32:42.374Z,6196
2017-09-13T07:33:42.357Z,4724
2017-09-13T07:34:42.666Z,4228
2017-09-13T07:35:42.023Z,2992
2017-09-13T07:36:41.688Z,3092
2017-09-13T07:37:42.366Z,5008
2017-09-13T07:38:42.298Z,7432
2017-09-13T07:39:42.167Z,6148
2017-09-13T07:40:41.626Z,4320
2017-09-13T07:41:41.609Z,3616
2017-09-13T07:42:42.292Z,5312
2017-09-13T07:43:42.557Z,8600
2017-09-13T07:44:41.933Z,9448
2017-09-13T07:45:42.227Z,8000
2017-09-13T07:46:41.876Z,7832
2017-09-13T07:47:42.181Z,8088
2017-09-13T07:48:41.523Z,8528
2017-09-13T07:49:41.834Z,7080
2017-09-13T07:50:41.813Z,5848
2017-09-13T07:51:41.805Z,6080
2017-09-13T07:52:42.113Z,5608
2017-09-13T07:53:42.283Z,4828
2017-09-13T07:54:42.411Z,6256
2017-09-13T07:55:42.453Z,7028
2017-09-13T07:56:42.086Z,6936
2017-09-13T07:57:42.387Z,7876
2017-09-13T07:58:41.735Z,7148
2017-09-13T07:59:42.035Z,7960
2017-09-13T08:00:41.687Z,7720
2017-09-13T08:01:42.033Z,8440
2017-09-13T08:02:41.992Z,8432
2017-09-13T08:03:42.301Z,7100
2017-09-13T08:04:41.651Z,7320
2017-09-13T08:05:41.637Z,7048
2017-09-13T08:06:42.261Z,6604
2017-09-13T08:07:41.925Z,4980
2017-09-13T08:08:42.231Z,3488
2017-09-13T08:09:41.897Z,6164
2017-09-13T08:10:41.891Z,6696
2017-09-13T08:11:41.550Z,7940
2017-09-13T08:12:41.867Z,9296
2017-09-13T08:13:41.851Z,10340
2017-09-13T08:14:41.845Z,25728
2017-09-13T08:15:41.507Z,8176
2017-09-13T08:16:42.146Z,7404
2017-09-13T08:17:41.483Z,7256
2017-09-13T08:18:41.796Z,7476
2017-09-13T08:19:41.785Z,7020
2017-09-13T08:20:41.779Z,4988
2017-09-13T08:21:41.774Z,5180
2017-09-13T08:22:42.062Z,5456
2017-09-13T08:23:41.414Z,6516
2017-09-13T08:24:41.735Z,6976
2017-09-13T08:25:42.027Z,7480
2017-09-13T08:26:41.379Z,7548
2017-09-13T08:27:41.040Z,8764
2017-09-13T08:28:41.676Z,10424
2017-09-13T08:29:41.332Z,10180
2017-09-13T08:30:41.648Z,8920
2017-09-13T08:31:40.991Z,8928
2017-09-13T08:32:41.308Z,9512
2017-09-13T08:33:41.293Z,7464
2017-09-13T08:34:41.271Z,7052
2017-09-13T08:35:41.587Z,8776
2017-09-13T08:36:41.897Z,5940
2017-09-13T08:37:41.241Z,4824
2017-09-13T08:38:41.227Z,5448
2017-09-13T08:39:41.225Z,4964
2017-09-13T08:40:41.529Z,4764
2017-09-13T08:41:41.198Z,4492
2017-09-13T08:42:41.500Z,6792
2017-09-13T08:43:41.183Z,5432
2017-09-13T08:44:41.481Z,5608
2017-09-13T08:45:41.475Z,4800
2017-09-13T08:46:41.473Z,4580
2017-09-13T08:47:41.454Z,5812
2017-09-13T08:48:41.474Z,6328
2017-09-13T08:49:41.753Z,7432
2017-09-13T08:50:41.423Z,4124
2017-09-13T08:51:41.754Z,5276
2017-09-13T08:52:41.080Z,5704
2017-09-13T08:53:41.406Z,7348
2017-09-13T08:54:41.057Z,6592
2017-09-13T08:55:40.715Z,5372
2017-09-13T08:56:41.021Z,5420
2017-09-13T08:57:41.670Z,6488
2017-09-13T08:58:40.997Z,4972
2017-09-13T08:59:41.326Z,5304
2017-09-13T09:00:41.629Z,4388
2017-09-13T09:01:41.610Z,4880
2017-09-13T09:02:41.591Z,4536
2017-09-13T09:03:41.267Z,4456
2017-09-13T09:04:40.942Z,7432
2017-09-13T09:05:40.922Z,4560
2017-09-13T09:06:56.621Z,4928
2017-09-13T09:07:41.999Z,4768
2017-09-13T09:08:41.761Z,4524
2017-09-13T09:09:41.239Z,4588
2017-09-13T09:10:41.514Z,5328
2017-09-13T09:11:41.545Z,5804
2017-09-13T09:12:40.877Z,4988
2017-09-13T09:13:41.157Z,6048
2017-09-13T09:14:56.054Z,6140
2017-09-13T09:16:40.991Z,7268
2017-09-13T09:17:41.103Z,6484
2017-09-13T09:18:40.463Z,6492
2017-09-13T09:19:40.754Z,5852
2017-09-13T09:20:40.760Z,4380
2017-09-13T09:21:41.372Z,4324
2017-09-13T09:22:41.366Z,6368
2017-09-13T09:23:40.718Z,5408
2017-09-13T09:24:41.027Z,4640
2017-09-13T09:25:40.693Z,5176
2017-09-13T09:26:40.995Z,5216
2017-09-13T09:27:40.986Z,7220
2017-09-13T09:28:40.656Z,5928
2017-09-13T09:29:40.653Z,7636
2017-09-13T09:30:40.674Z,6228
2017-09-13T09:31:40.622Z,6540
2017-09-13T09:32:40.988Z,4004
2017-09-13T09:33:40.603Z,6720
2017-09-13T09:34:40.592Z,8688
2017-09-13T09:35:40.260Z,6332
2017-09-13T09:36:40.565Z,5616
2017-09-13T09:37:40.568Z,6492
2017-09-13T09:38:40.873Z,3200
2017-09-13T09:39:41.379Z,4044
2017-09-13T09:40:40.528Z,7392
2017-09-13T09:41:41.166Z,8880
2017-09-13T09:42:41.023Z,10488
2017-09-13T09:43:40.487Z,12220
2017-09-13T09:44:40.478Z,14020
2017-09-13T09:45:40.804Z,8080
2017-09-13T09:46:40.453Z,9344
2017-09-13T09:47:40.446Z,10712
2017-09-13T09:48:40.756Z,7004
2017-09-13T09:49:41.067Z,5060
2017-09-13T09:50:40.734Z,6244
2017-09-13T09:51:40.720Z,4848
2017-09-13T09:52:41.034Z,4488
2017-09-13T09:53:40.700Z,3988
2017-09-13T09:54:41.018Z,4100
2017-09-13T09:55:40.999Z,8032
2017-09-13T09:56:40.989Z,11780
2017-09-13T09:57:40.655Z,10180
2017-09-13T09:58:40.010Z,10088
2017-09-13T09:59:40.648Z,14620
2017-09-13T10:00:40.300Z,13560
2017-09-13T10:01:40.615Z,10304
2017-09-13T10:02:40.288Z,7132
2017-09-13T10:03:40.592Z,8844
2017-09-13T10:04:40.915Z,11668
2017-09-13T10:05:40.582Z,12448
2017-09-13T10:06:40.237Z,9916
2017-09-13T10:07:40.550Z,9912
2017-09-13T10:08:40.236Z,6864
2017-09-13T10:09:40.524Z,6824
2017-09-13T10:10:40.198Z,7324
2017-09-13T10:11:40.506Z,4472
2017-09-13T10:12:40.494Z,3084
2017-09-13T10:13:40.168Z,2092
2017-09-13T10:14:40.154Z,1248
2017-09-13T10:15:40.134Z,1732
2017-09-13T10:16:40.766Z,2468
2017-09-13T10:17:39.803Z,3452
2017-09-13T10:18:40.103Z,4564
2017-09-13T10:19:39.770Z,7904
2017-09-13T10:20:40.401Z,7684
2017-09-13T10:21:40.404Z,11044
2017-09-13T10:22:40.705Z,9344
2017-09-13T10:23:40.687Z,7988
2017-09-13T10:24:40.035Z,6824
2017-09-13T10:25:40.671Z,8604
2017-09-13T10:26:40.024Z,7440
2017-09-13T10:27:40.337Z,8240
2017-09-13T10:28:39.993Z,7112
2017-09-13T10:29:39.979Z,7984
2017-09-13T10:30:40.288Z,8740
2017-09-13T10:31:39.960Z,8112
2017-09-13T10:32:40.304Z,16932
2017-09-13T10:33:40.253Z,8976
2017-09-13T10:34:39.593Z,9544
2017-09-13T10:35:39.582Z,13144
2017-09-13T10:36:39.573Z,19232
2017-09-13T10:37:39.578Z,9724
2017-09-13T10:38:39.878Z,9540
2017-09-13T10:39:39.894Z,26496
2017-09-13T10:40:40.172Z,7996
2017-09-13T10:41:40.174Z,12648
2017-09-13T10:42:40.150Z,9568
2017-09-13T10:43:40.494Z,7664
2017-09-13T10:44:40.131Z,7368
2017-09-13T10:45:39.824Z,0
2017-09-13T10:46:40.105Z,39680
2017-09-13T10:47:40.117Z,7696
2017-09-13T10:48:40.080Z,13160
2017-09-13T10:49:39.764Z,8068
2017-09-13T10:50:40.082Z,39968
2017-09-13T10:51:40.384Z,24544
2017-09-13T10:52:40.045Z,8508
2017-09-13T10:53:39.716Z,14176
2017-09-13T10:54:40.353Z,8192
2017-09-13T10:55:40.017Z,29920
2017-09-13T10:56:39.363Z,3532
2017-09-13T10:57:39.673Z,10000
2017-09-13T10:58:39.983Z,25664
2017-09-13T10:59:40.291Z,0
2017-09-13T11:00:39.641Z,14908
2017-09-13T11:01:39.640Z,36128
2017-09-13T11:02:39.636Z,13052
2017-09-13T11:03:40.272Z,18944
2017-09-13T11:04:39.287Z,45536
2017-09-13T11:05:40.245Z,72864
2017-09-13T11:06:40.252Z,10824
2017-09-13T11:07:39.581Z,38816
2017-09-13T11:08:39.892Z,27040
2017-09-13T11:09:39.567Z,78560
2017-09-13T11:10:39.881Z,21824
2017-09-13T11:11:39.556Z,55584
2017-09-13T11:12:39.872Z,21920
2017-09-13T11:13:39.530Z,7392
2017-09-13T11:14:39.850Z,48288
2017-09-13T11:15:39.845Z,13664
2017-09-13T11:16:39.525Z,68544
2017-09-13T11:17:40.169Z,17440
2017-09-13T11:18:40.152Z,13800
2017-09-13T11:19:39.822Z,18240
2017-09-13T11:20:39.178Z,9688
2017-09-13T11:21:39.486Z,33184
2017-09-13T11:22:40.132Z,9768
2017-09-13T11:23:39.803Z,9044
2017-09-13T11:24:40.112Z,11788
2017-09-13T11:25:39.466Z,77504
2017-09-13T11:26:39.457Z,12988
2017-09-13T11:27:39.772Z,8712
2017-09-13T11:28:40.091Z,9328
2017-09-13T11:29:40.105Z,11200
2017-09-13T11:30:39.756Z,25216
2017-09-13T11:31:39.425Z,30016
2017-09-13T11:32:39.100Z,17344
2017-09-13T11:33:39.737Z,126144
2017-09-13T11:34:40.059Z,62752
2017-09-13T11:35:39.393Z,0
2017-09-13T11:36:39.395Z,19584
2017-09-13T11:37:39.710Z,90176
2017-09-13T11:38:39.383Z,16284
2017-09-13T11:39:39.578Z,69792
2017-09-13T11:40:39.369Z,82784
2017-09-13T11:41:39.691Z,96896
2017-09-13T11:42:39.680Z,88864
2017-09-13T11:43:39.366Z,90720
2017-09-13T11:44:39.993Z,92832
2017-09-13T11:45:39.674Z,96832
2017-09-13T11:46:39.668Z,59552
2017-09-13T11:47:39.669Z,93088
2017-09-13T11:48:39.667Z,95040
2017-09-13T11:49:39.338Z,13708
2017-09-13T11:50:39.335Z,10860
2017-09-13T11:51:39.017Z,24992
2017-09-13T11:52:39.976Z,85856
2017-09-13T11:53:39.003Z,83776
2017-09-13T11:54:39.327Z,79392
2017-09-13T11:55:39.650Z,15384
2017-09-13T11:56:39.972Z,10640
2017-09-13T11:57:39.649Z,8808
2017-09-13T11:58:39.957Z,76128
2017-09-13T11:59:39.644Z,15368
2017-09-13T12:00:39.308Z,40960
2017-09-13T12:01:39.313Z,84416
2017-09-13T12:02:39.952Z,83552
2017-09-13T12:03:38.973Z,87808
2017-09-13T12:04:39.948Z,9836
2017-09-13T12:05:39.616Z,23200
2017-09-13T12:06:39.288Z,100576
2017-09-13T12:07:39.284Z,7296
2017-09-13T12:08:38.958Z,98880
2017-09-13T12:09:39.602Z,97664
2017-09-13T12:10:39.596Z,95168
2017-09-13T12:11:38.956Z,94720
2017-09-13T12:12:39.588Z,93824
2017-09-13T12:13:39.259Z,92448
2017-09-13T12:14:39.589Z,90496
2017-09-13T12:15:39.586Z,89408
2017-09-13T12:16:39.584Z,87840
2017-09-13T12:17:39.267Z,87584
2017-09-13T12:18:39.253Z,85632
2017-09-13T12:19:39.572Z,81568
2017-09-13T12:20:39.252Z,79360
2017-09-13T12:21:39.249Z,79072
2017-09-13T12:22:39.893Z,78112
2017-09-13T12:23:39.605Z,78272
2017-09-13T12:24:39.579Z,80800
2017-09-13T12:25:39.890Z,81888
2017-09-13T12:26:39.243Z,83808
2017-09-13T12:27:39.564Z,86976
2017-09-13T12:28:39.242Z,90944
2017-09-13T12:29:39.905Z,89152
2017-09-13T12:30:38.927Z,88768
2017-09-13T12:31:39.905Z,87072
2017-09-13T12:32:39.561Z,96320
2017-09-13T12:33:39.241Z,96512
2017-09-13T12:34:39.252Z,96896
2017-09-13T12:35:38.923Z,9576
2017-09-13T12:36:39.242Z,8756
2017-09-13T12:37:38.935Z,18432
2017-09-13T12:38:39.895Z,35008
2017-09-13T12:39:38.925Z,13864
2017-09-13T12:40:39.568Z,29056
2017-09-13T12:41:39.574Z,7376
2017-09-13T12:42:39.567Z,7612
2017-09-13T12:43:39.249Z,39680
2017-09-13T12:44:39.239Z,9060
2017-09-13T12:45:39.239Z,6568
2017-09-13T12:46:38.940Z,6268
2017-09-13T12:47:39.582Z,92000
2017-09-13T12:48:38.910Z,88448
2017-09-13T12:49:39.233Z,86144
2017-09-13T12:50:39.548Z,85952
2017-09-13T12:51:39.537Z,30656
2017-09-13T12:52:38.899Z,89472
2017-09-13T12:53:39.215Z,90720
2017-09-13T12:54:39.207Z,88000
2017-09-13T12:55:39.540Z,83488
2017-09-13T12:56:39.526Z,77888
2017-09-13T12:57:39.838Z,15408
2017-09-13T12:58:39.197Z,11752
2017-09-13T12:59:39.842Z,81760
2017-09-13T13:00:39.525Z,87872
2017-09-13T13:01:39.837Z,10796
2017-09-13T13:02:39.830Z,94112
2017-09-13T13:03:39.518Z,7988
2017-09-13T13:04:39.189Z,82592
2017-09-13T13:05:39.500Z,59168
2017-09-13T13:06:39.181Z,47488
2017-09-13T13:07:39.507Z,72064
2017-09-13T13:08:39.179Z,18336
2017-09-13T13:09:39.490Z,14536
2017-09-13T13:10:39.479Z,10192
2017-09-13T13:11:39.807Z,12812
2017-09-13T13:12:39.161Z,12264
2017-09-13T13:13:39.475Z,79808
2017-09-13T13:14:38.821Z,82048
2017-09-13T13:15:39.459Z,80832
2017-09-13T13:16:39.133Z,78112
2017-09-13T13:17:39.131Z,12308
2017-09-13T13:18:38.811Z,12768
2017-09-13T13:19:39.322Z,11048
2017-09-13T13:20:39.441Z,16100
2017-09-13T13:21:39.458Z,94400
2017-09-13T13:22:39.440Z,25632
2017-09-13T13:23:39.425Z,22464
2017-09-13T13:24:39.422Z,38976
2017-09-13T13:25:38.775Z,23424
2017-09-13T13:26:39.091Z,23936
2017-09-13T13:27:39.096Z,50368
2017-09-13T13:28:39.080Z,77696
2017-09-13T13:29:39.074Z,84640
2017-09-13T13:30:39.080Z,10168
2017-09-13T13:31:39.070Z,65536
2017-09-13T13:32:39.399Z,77408
2017-09-13T13:33:39.079Z,37408
2017-09-13T13:34:39.061Z,18432
2017-09-13T13:35:39.374Z,14348
2017-09-13T13:36:39.368Z,15236
2017-09-13T13:37:39.363Z,19904
2017-09-13T13:38:39.050Z,22432
2017-09-13T13:39:39.888Z,17504
2017-09-13T13:40:39.358Z,11884
2017-09-13T13:41:39.037Z,10712
2017-09-13T13:42:39.346Z,13360
2017-09-13T13:43:39.021Z,10396
2017-09-13T13:44:39.344Z,8392
2017-09-13T13:45:39.028Z,7800
2017-09-13T13:46:39.642Z,12720